createdAt,value
2018-05-04T00:01:45.637Z,1.97
2018-05-04T00:04:17.150Z,2.37
2018-05-04T00:06:48.525Z,2.10
2018-05-04T00:09:20.664Z,1.80
2018-05-04T00:11:52.054Z,2.00
2018-05-04T00:14:24.801Z,2.10
2018-05-04T00:16:56.160Z,1.87
2018-05-04T00:19:27.665Z,1.90
2018-05-04T00:21:59.025Z,1.90
2018-05-04T00:24:30.350Z,2.43
2018-05-04T00:27:01.832Z,1.97
2018-05-04T00:29:33.179Z,2.20
2018-05-04T00:32:04.769Z,2.20
2018-05-04T00:34:36.158Z,1.80
2018-05-04T00:37:07.434Z,2.30
2018-05-04T00:39:39.035Z,2.03
2018-05-04T00:42:10.517Z,2.43
2018-05-04T00:44:42.638Z,2.20
2018-05-04T00:47:14.023Z,2.20
2018-05-04T00:49:46.170Z,2.60
2018-05-04T00:52:18.453Z,2.13
2018-05-04T00:54:50.596Z,2.17
2018-05-04T00:57:22.209Z,2.37
2018-05-04T00:59:53.575Z,2.60
2018-05-04T01:02:24.923Z,2.00
2018-05-04T01:04:56.293Z,2.37
2018-05-04T01:07:27.636Z,2.43
2018-05-04T01:09:59.301Z,2.37
2018-05-04T01:12:30.630Z,2.43
2018-05-04T01:15:02.007Z,2.63
2018-05-04T01:17:33.518Z,2.50
2018-05-04T01:20:04.210Z,2.30
2018-05-04T01:22:36.312Z,2.20
2018-05-04T01:25:07.688Z,2.73
2018-05-04T01:27:39.054Z,2.40
2018-05-04T01:30:10.587Z,2.40
2018-05-04T01:32:41.933Z,2.50
2018-05-04T01:35:13.321Z,2.40
2018-05-04T01:37:45.171Z,2.60
2018-05-04T01:40:16.467Z,2.67
2018-05-04T01:42:48.579Z,2.43
2018-05-04T01:45:19.910Z,2.60
2018-05-04T01:47:54.316Z,2.70
2018-05-04T01:50:25.661Z,2.70
2018-05-04T01:52:56.995Z,2.90
2018-05-04T01:55:29.122Z,2.50
2018-05-04T01:58:00.479Z,3.30
2018-05-04T02:00:31.833Z,3.00
2018-05-04T02:03:03.191Z,2.77
2018-05-04T02:05:34.577Z,3.17
2018-05-04T02:08:06.334Z,2.70
2018-05-04T02:10:38.465Z,2.40
2018-05-04T02:13:09.812Z,2.67
2018-05-04T02:15:41.186Z,2.50
2018-05-04T02:18:13.313Z,2.87
2018-05-04T02:20:44.762Z,2.97
2018-05-04T02:23:16.113Z,3.63
2018-05-04T02:25:47.489Z,2.70
2018-05-04T02:28:19.593Z,2.93
2018-05-04T02:30:51.905Z,3.10
2018-05-04T02:33:23.231Z,3.00
2018-05-04T02:35:54.642Z,3.60
2018-05-04T02:38:26.754Z,2.87
2018-05-04T02:40:58.180Z,3.47
2018-05-04T02:43:29.291Z,3.30
2018-05-04T02:46:00.730Z,3.70
2018-05-04T02:48:32.082Z,3.30
2018-05-04T02:51:03.314Z,3.37
2018-05-04T02:53:35.266Z,2.97
2018-05-04T02:56:06.624Z,3.30
2018-05-04T02:58:38.093Z,3.40
2018-05-04T03:01:09.456Z,3.20
2018-05-04T03:03:41.101Z,3.37
2018-05-04T03:06:12.457Z,3.67
2018-05-04T03:08:45.381Z,3.20
2018-05-04T03:11:16.786Z,3.30
2018-05-04T03:13:48.237Z,3.57
2018-05-04T03:16:19.827Z,3.27
2018-05-04T03:18:51.709Z,3.40
2018-05-04T03:21:22.913Z,3.70
2018-05-04T03:23:54.488Z,3.17
2018-05-04T03:26:26.623Z,3.60
2018-05-04T03:28:57.827Z,3.63
2018-05-04T03:31:29.018Z,3.73
2018-05-04T03:34:00.189Z,3.63
2018-05-04T03:36:31.405Z,3.80
2018-05-04T03:39:02.777Z,4.23
2018-05-04T03:41:35.586Z,4.20
2018-05-04T03:44:07.182Z,3.93
2018-05-04T03:46:38.166Z,4.17
2018-05-04T03:49:09.394Z,3.53
2018-05-04T03:51:40.601Z,4.40
2018-05-04T03:54:11.776Z,4.33
2018-05-04T03:56:42.963Z,4.20
2018-05-04T03:59:31.038Z,3.90
2018-05-04T04:02:19.200Z,3.77
2018-05-04T04:04:50.954Z,4.40
2018-05-04T04:07:22.279Z,3.93
2018-05-04T04:09:53.698Z,4.30
2018-05-04T04:12:25.793Z,4.00
2018-05-04T04:14:57.169Z,4.53
2018-05-04T04:17:28.533Z,4.00
2018-05-04T04:19:59.846Z,3.83
2018-05-04T04:22:31.249Z,4.20
2018-05-04T04:25:02.629Z,4.80
2018-05-04T04:27:34.013Z,4.70
2018-05-04T04:30:05.333Z,4.77
2018-05-04T04:32:36.681Z,5.20
2018-05-04T04:35:08.895Z,5.07
2018-05-04T04:37:40.262Z,5.40
2018-05-04T04:40:11.659Z,5.37
2018-05-04T04:42:43.046Z,5.37
2018-05-04T04:45:15.306Z,5.37
2018-05-04T04:47:46.812Z,5.87
2018-05-04T04:50:18.966Z,4.77
2018-05-04T04:52:50.597Z,6.03
2018-05-04T04:55:22.403Z,9.63
2018-05-04T04:57:53.842Z,7.20
2018-05-04T05:00:25.959Z,6.27
2018-05-04T05:02:57.306Z,7.83
2018-05-04T05:05:28.642Z,6.03
2018-05-04T05:08:00.025Z,6.00
2018-05-04T05:10:31.404Z,4.90
2018-05-04T05:13:03.044Z,6.13
2018-05-04T05:15:34.378Z,7.00
2018-05-04T05:18:05.732Z,6.17
2018-05-04T05:20:37.169Z,7.83
2018-05-04T05:23:08.546Z,5.67
2018-05-04T05:25:39.897Z,5.23
2018-05-04T05:28:11.203Z,5.73
2018-05-04T05:30:42.958Z,6.00
2018-05-04T05:33:14.311Z,6.30
2018-05-04T05:35:45.716Z,5.33
2018-05-04T05:38:17.078Z,6.17
2018-05-04T05:40:48.107Z,5.80
2018-05-04T05:43:20.678Z,6.23
2018-05-04T05:45:52.140Z,6.07
2018-05-04T05:48:24.028Z,6.50
2018-05-04T05:50:55.421Z,7.37
2018-05-04T05:53:26.767Z,7.60
2018-05-04T05:55:58.132Z,7.30
2018-05-04T05:58:31.074Z,8.93
2018-05-04T06:01:02.767Z,6.37
2018-05-04T06:03:34.128Z,6.27
2018-05-04T06:06:05.607Z,5.80
2018-05-04T06:08:37.167Z,7.10
2018-05-04T06:11:08.527Z,7.00
2018-05-04T06:13:40.270Z,7.57
2018-05-04T06:16:11.429Z,7.67
2018-05-04T06:18:43.171Z,6.60
2018-05-04T06:21:15.278Z,6.77
2018-05-04T06:23:46.691Z,7.77
2018-05-04T06:26:18.901Z,6.77
2018-05-04T06:28:50.601Z,6.63
2018-05-04T06:31:23.582Z,7.10
2018-05-04T06:33:55.145Z,6.87
2018-05-04T06:36:27.409Z,6.50
2018-05-04T06:38:58.972Z,6.70
2018-05-04T06:41:30.478Z,6.60
2018-05-04T06:44:01.855Z,6.47
2018-05-04T06:46:34.068Z,7.10
2018-05-04T06:49:05.682Z,7.07
2018-05-04T06:51:37.088Z,6.97
2018-05-04T06:54:09.270Z,6.77
2018-05-04T06:56:40.709Z,6.57
2018-05-04T06:59:12.055Z,7.10
2018-05-04T07:01:44.181Z,6.77
2018-05-04T07:04:15.572Z,6.33
2018-05-04T07:06:47.725Z,7.27
2018-05-04T07:09:19.851Z,7.20
2018-05-04T07:11:51.318Z,6.60
2018-05-04T07:14:23.491Z,6.17
2018-05-04T07:16:54.985Z,6.43
2018-05-04T07:19:26.408Z,16.47
2018-05-04T07:21:59.440Z,7.13
2018-05-04T07:24:31.338Z,7.20
2018-05-04T07:27:02.648Z,6.83
2018-05-04T07:29:34.760Z,7.53
2018-05-04T07:32:06.337Z,6.87
2018-05-04T07:34:37.712Z,20.27
2018-05-04T07:37:09.119Z,7.20
2018-05-04T07:39:40.969Z,6.90
2018-05-04T07:42:13.129Z,7.13
2018-05-04T07:44:44.572Z,6.67
2018-05-04T07:47:15.972Z,6.43
2018-05-04T07:49:47.369Z,6.90
2018-05-04T07:52:18.896Z,6.77
2018-05-04T07:54:50.232Z,6.90
2018-05-04T07:57:22.415Z,6.43
2018-05-04T07:59:54.545Z,6.27
2018-05-04T08:02:26.081Z,6.40
2018-05-04T08:04:57.437Z,6.60
2018-05-04T08:07:29.093Z,7.00
2018-05-04T08:10:00.444Z,6.23
2018-05-04T08:12:31.842Z,6.37
2018-05-04T08:15:03.255Z,7.70
2018-05-04T08:17:34.678Z,5.93
2018-05-04T08:20:06.106Z,5.17
2018-05-04T08:22:38.368Z,5.47
2018-05-04T08:25:09.739Z,5.90
2018-05-04T08:27:41.083Z,5.57
2018-05-04T08:30:12.455Z,6.10
2018-05-04T08:32:43.826Z,5.43
2018-05-04T08:35:15.278Z,5.97
2018-05-04T08:37:46.805Z,5.20
2018-05-04T08:40:17.939Z,4.67
2018-05-04T08:42:50.089Z,5.13
2018-05-04T08:45:21.616Z,5.47
2018-05-04T08:47:52.973Z,4.77
2018-05-04T08:50:25.241Z,4.20
2018-05-04T08:52:56.690Z,4.00
2018-05-04T08:55:28.904Z,3.90
2018-05-04T08:58:00.288Z,4.17
2018-05-04T09:00:31.628Z,5.10
2018-05-04T09:03:03.109Z,4.20
2018-05-04T09:05:36.077Z,3.60
2018-05-04T09:08:08.364Z,4.10
2018-05-04T09:10:40.497Z,4.87
2018-05-04T09:13:12.329Z,4.47
2018-05-04T09:15:43.724Z,4.23
2018-05-04T09:18:15.285Z,4.00
2018-05-04T09:20:46.709Z,3.83
2018-05-04T09:23:18.058Z,3.57
2018-05-04T09:25:49.468Z,5.63
2018-05-04T09:28:20.788Z,4.60
2018-05-04T09:30:52.416Z,4.43
2018-05-04T09:33:24.873Z,3.87
2018-05-04T09:35:56.979Z,3.90
2018-05-04T09:38:28.653Z,3.80
2018-05-04T09:41:00.040Z,3.40
2018-05-04T09:43:31.509Z,3.30
2018-05-04T09:46:03.095Z,4.40
2018-05-04T09:48:34.422Z,3.20
2018-05-04T09:51:05.779Z,4.07
2018-05-04T09:53:37.266Z,3.83
2018-05-04T09:56:10.314Z,4.40
2018-05-04T09:58:42.630Z,4.13
2018-05-04T10:01:14.834Z,4.07
2018-05-04T10:03:46.925Z,3.90
2018-05-04T10:06:18.453Z,3.40
2018-05-04T10:08:49.983Z,4.57
2018-05-04T10:11:22.960Z,3.80
2018-05-04T10:13:54.323Z,5.17
2018-05-04T10:16:25.721Z,3.53
2018-05-04T10:18:57.093Z,3.60
2018-05-04T10:21:28.440Z,4.20
2018-05-04T10:23:59.880Z,3.90
2018-05-04T10:26:31.284Z,4.03
2018-05-04T10:29:02.609Z,3.23
2018-05-04T10:31:33.993Z,3.77
2018-05-04T10:34:05.362Z,4.00
2018-05-04T10:36:36.815Z,4.93
2018-05-04T10:39:08.206Z,4.60
2018-05-04T10:41:39.572Z,3.90
2018-05-04T10:44:10.979Z,4.50
2018-05-04T10:46:42.973Z,4.26
2018-05-04T10:49:14.353Z,3.77
2018-05-04T10:51:46.319Z,4.20
2018-05-04T10:54:18.429Z,4.10
2018-05-04T10:56:50.113Z,4.05
2018-05-04T10:59:22.858Z,4.20
2018-05-04T11:01:55.603Z,4.20
2018-05-04T11:04:27.654Z,3.85
2018-05-04T11:07:00.591Z,7.07
2018-05-04T11:09:32.625Z,4.30
2018-05-04T11:12:04.545Z,5.12
2018-05-04T11:14:37.465Z,5.50
2018-05-04T11:17:09.330Z,5.07
2018-05-04T11:19:41.253Z,4.50
2018-05-04T11:22:14.017Z,6.25
2018-05-04T11:24:45.993Z,5.10
2018-05-04T11:27:18.887Z,6.00
2018-05-04T11:29:51.600Z,4.87
2018-05-04T11:32:23.761Z,4.65
2018-05-04T11:34:55.718Z,5.18
2018-05-04T11:37:28.406Z,5.03
2018-05-04T11:40:00.312Z,5.00
2018-05-04T11:42:32.159Z,5.35
2018-05-04T11:45:03.962Z,5.10
2018-05-04T11:47:35.909Z,5.40
2018-05-04T11:50:07.824Z,5.28
2018-05-04T11:52:40.750Z,5.70
2018-05-04T11:55:12.783Z,5.12
2018-05-04T11:57:44.909Z,6.62
2018-05-04T12:00:17.628Z,6.15
2018-05-04T12:02:50.354Z,4.85
2018-05-04T12:05:23.066Z,4.72
2018-05-04T12:07:55.977Z,4.62
2018-05-04T12:10:28.262Z,4.97
2018-05-04T12:12:59.983Z,4.50
2018-05-04T12:15:32.047Z,4.72
2018-05-04T12:18:04.290Z,4.78
2018-05-04T12:20:37.383Z,4.80
2018-05-04T12:23:09.409Z,4.47
2018-05-04T12:25:41.313Z,4.90
2018-05-04T12:28:13.270Z,5.18
2018-05-04T12:30:45.169Z,4.10
2018-05-04T12:33:17.961Z,4.93
2018-05-04T12:35:49.868Z,5.30
2018-05-04T12:38:21.822Z,4.65
2018-05-04T12:40:53.700Z,4.72
2018-05-04T12:43:25.639Z,4.60
2018-05-04T12:45:57.529Z,4.95
2018-05-04T12:48:29.460Z,4.68
2018-05-04T12:51:01.375Z,5.00
2018-05-04T12:53:34.214Z,4.37
2018-05-04T12:56:06.999Z,4.15
2018-05-04T12:58:40.010Z,4.95
2018-05-04T13:01:13.241Z,4.90
2018-05-04T13:03:45.567Z,4.93
2018-05-04T13:06:17.466Z,4.03
2018-05-04T13:08:50.182Z,4.15
2018-05-04T13:11:22.404Z,4.32
2018-05-04T13:13:54.088Z,3.80
2018-05-04T13:16:25.992Z,3.65
2018-05-04T13:18:58.092Z,4.05
2018-05-04T13:21:30.057Z,3.40
2018-05-04T13:24:02.317Z,3.70
2018-05-04T13:26:34.270Z,3.30
2018-05-04T13:29:06.206Z,3.37
2018-05-04T13:31:38.237Z,3.17
2018-05-04T13:34:10.172Z,3.70
2018-05-04T13:36:41.762Z,3.27
2018-05-04T13:39:13.122Z,3.30
2018-05-04T13:41:44.591Z,3.40
2018-05-04T13:44:15.941Z,3.70
2018-05-04T13:46:47.570Z,3.73
2018-05-04T13:49:19.094Z,3.97
2018-05-04T13:51:50.469Z,3.53
2018-05-04T13:54:21.874Z,3.60
2018-05-04T13:56:54.011Z,3.37
2018-05-04T13:59:25.634Z,3.17
2018-05-04T14:01:56.771Z,3.30
2018-05-04T14:04:29.141Z,3.50
2018-05-04T14:07:00.324Z,3.93
2018-05-04T14:09:31.729Z,3.70
2018-05-04T14:12:03.227Z,3.50
2018-05-04T14:14:34.683Z,3.43
2018-05-04T14:17:06.080Z,3.27
2018-05-04T14:19:37.505Z,2.70
2018-05-04T14:22:09.678Z,3.03
2018-05-04T14:24:41.305Z,2.97
2018-05-04T14:27:13.545Z,4.10
2018-05-04T14:29:45.117Z,3.53
2018-05-04T14:32:16.471Z,3.53
2018-05-04T14:34:47.868Z,3.53
2018-05-04T14:37:21.844Z,3.60
2018-05-04T14:39:53.231Z,2.93
2018-05-04T14:42:24.728Z,3.50
2018-05-04T14:44:56.111Z,2.83
2018-05-04T14:47:27.595Z,3.80
2018-05-04T14:49:59.026Z,3.80
2018-05-04T14:52:30.495Z,3.47
2018-05-04T14:55:01.997Z,4.27
2018-05-04T14:57:33.385Z,3.97
2018-05-04T15:00:04.166Z,3.60
2018-05-04T15:02:35.921Z,3.73
2018-05-04T15:05:07.551Z,3.57
2018-05-04T15:07:38.969Z,3.77
2018-05-04T15:10:10.287Z,3.70
2018-05-04T15:12:41.862Z,3.20
2018-05-04T15:15:13.534Z,3.30
2018-05-04T15:17:45.451Z,3.17
2018-05-04T15:20:16.929Z,3.00
2018-05-04T15:22:48.450Z,5.00
2018-05-04T15:25:20.238Z,4.37
2018-05-04T15:27:51.575Z,4.37
2018-05-04T15:30:23.044Z,4.60
2018-05-04T15:32:54.394Z,5.37
2018-05-04T15:35:26.567Z,5.00
2018-05-04T15:37:57.934Z,4.10
2018-05-04T15:40:30.193Z,4.40
2018-05-04T15:43:01.834Z,4.33
2018-05-04T15:45:33.182Z,4.20
2018-05-04T15:48:09.776Z,4.33
2018-05-04T15:50:46.460Z,4.27
2018-05-04T15:53:18.587Z,3.90
2018-05-04T15:55:49.977Z,4.20
2018-05-04T15:58:22.262Z,3.93
2018-05-04T16:00:53.941Z,3.50
2018-05-04T16:03:25.317Z,3.60
2018-05-04T16:05:56.733Z,4.13
2018-05-04T16:08:27.949Z,4.33
2018-05-04T16:10:59.271Z,4.13
2018-05-04T16:13:30.691Z,4.33
2018-05-04T16:16:02.205Z,4.63
2018-05-04T16:18:33.549Z,4.57
2018-05-04T16:21:05.018Z,3.97
2018-05-04T16:23:37.154Z,4.30
2018-05-04T16:26:08.534Z,4.20
2018-05-04T16:28:39.877Z,4.07
2018-05-04T16:31:11.010Z,4.50
2018-05-04T16:33:43.142Z,5.07
2018-05-04T16:36:14.526Z,4.53
2018-05-04T16:38:46.160Z,4.47
2018-05-04T16:41:17.656Z,4.23
2018-05-04T16:43:49.132Z,4.10
2018-05-04T16:46:25.841Z,4.20
2018-05-04T16:49:02.590Z,3.57
2018-05-04T16:51:34.041Z,3.57
2018-05-04T16:54:06.210Z,3.67
2018-05-04T16:56:37.351Z,3.90
2018-05-04T16:59:08.721Z,4.27
2018-05-04T17:01:39.909Z,4.23
2018-05-04T17:04:11.036Z,3.77
2018-05-04T17:06:42.211Z,4.00
2018-05-04T17:09:13.463Z,4.10
2018-05-04T17:11:45.607Z,4.43
2018-05-04T17:14:17.520Z,3.90
2018-05-04T17:16:48.981Z,3.40
2018-05-04T17:19:20.081Z,3.57
2018-05-04T17:21:51.251Z,4.07
2018-05-04T17:24:22.353Z,3.70
2018-05-04T17:26:53.967Z,3.87
2018-05-04T17:29:25.420Z,3.90
2018-05-04T17:31:56.853Z,4.73
2018-05-04T17:34:29.028Z,4.00
2018-05-04T17:37:00.155Z,4.10
2018-05-04T17:39:32.290Z,4.00
2018-05-04T17:42:03.640Z,4.00
2018-05-04T17:44:35.051Z,4.40
2018-05-04T17:47:06.749Z,4.03
2018-05-04T17:49:38.512Z,4.27
2018-05-04T17:52:09.723Z,4.07
2018-05-04T17:54:41.126Z,4.30
2018-05-04T17:57:12.816Z,3.97
2018-05-04T17:59:44.595Z,3.87
2018-05-04T18:02:16.266Z,3.93
2018-05-04T18:04:47.693Z,4.43
2018-05-04T18:07:19.122Z,4.30
2018-05-04T18:09:51.611Z,3.90
2018-05-04T18:12:23.414Z,4.07
2018-05-04T18:14:55.090Z,3.93
2018-05-04T18:17:26.489Z,3.67
2018-05-04T18:19:58.818Z,3.97
2018-05-04T18:22:31.693Z,3.30
2018-05-04T18:25:03.050Z,3.97
2018-05-04T18:27:34.457Z,3.73
2018-05-04T18:30:06.274Z,4.10
2018-05-04T18:32:37.736Z,3.80
2018-05-04T18:35:09.077Z,3.87
2018-05-04T18:37:40.498Z,3.43
2018-05-04T18:40:11.836Z,3.67
2018-05-04T18:42:43.389Z,3.60
2018-05-04T18:45:14.857Z,3.80
2018-05-04T18:47:46.209Z,3.33
2018-05-04T18:50:17.560Z,4.10
2018-05-04T18:52:48.906Z,3.57
2018-05-04T18:55:20.300Z,4.00
2018-05-04T18:57:52.439Z,3.23
2018-05-04T19:00:23.774Z,3.53
2018-05-04T19:03:00.793Z,3.87
2018-05-04T19:05:32.918Z,3.30
2018-05-04T19:08:05.299Z,3.23
2018-05-04T19:10:36.787Z,3.20
2018-05-04T19:13:08.608Z,3.50
2018-05-04T19:15:39.989Z,3.37
2018-05-04T19:18:11.431Z,3.70
2018-05-04T19:20:42.845Z,3.37
2018-05-04T19:23:15.173Z,3.30
2018-05-04T19:25:46.573Z,3.43
2018-05-04T19:28:17.884Z,3.90
2018-05-04T19:30:49.257Z,3.57
2018-05-04T19:33:20.607Z,3.00
2018-05-04T19:35:52.021Z,3.50
2018-05-04T19:38:23.426Z,3.27
2018-05-04T19:40:54.822Z,3.30
2018-05-04T19:43:26.242Z,3.70
2018-05-04T19:45:57.613Z,3.40
2018-05-04T19:48:29.250Z,3.63
2018-05-04T19:51:00.620Z,3.10
2018-05-04T19:53:32.859Z,3.57
2018-05-04T19:56:04.281Z,3.43
2018-05-04T19:58:35.878Z,2.83
2018-05-04T20:01:07.355Z,3.70
2018-05-04T20:03:38.843Z,3.20
2018-05-04T20:06:10.189Z,3.47
2018-05-04T20:08:41.677Z,3.50
2018-05-04T20:11:13.790Z,3.70
2018-05-04T20:13:45.955Z,3.10
2018-05-04T20:16:18.069Z,3.40
2018-05-04T20:18:49.763Z,3.37
2018-05-04T20:21:21.167Z,3.43
2018-05-04T20:23:53.369Z,3.93
2018-05-04T20:26:25.692Z,4.30
2018-05-04T20:28:57.138Z,3.40
2018-05-04T20:31:29.387Z,3.70
2018-05-04T20:34:01.535Z,3.27
2018-05-04T20:36:32.922Z,3.80
2018-05-04T20:39:03.874Z,3.60
2018-05-04T20:41:35.225Z,3.23
2018-05-04T20:44:06.665Z,3.13
2018-05-04T20:46:38.191Z,3.60
2018-05-04T20:49:09.598Z,3.90
2018-05-04T20:51:41.387Z,3.70
2018-05-04T20:54:12.811Z,3.63
2018-05-04T20:56:44.096Z,3.60
2018-05-04T20:59:15.143Z,3.43
2018-05-04T21:01:46.524Z,3.13
2018-05-04T21:04:17.898Z,3.30
2018-05-04T21:06:49.295Z,3.83
2018-05-04T21:09:20.581Z,3.60
2018-05-04T21:11:52.391Z,3.57
2018-05-04T21:14:23.822Z,4.00
2018-05-04T21:16:55.191Z,3.43
2018-05-04T21:19:26.586Z,3.50
2018-05-04T21:21:58.111Z,3.60
2018-05-04T21:24:30.273Z,3.53
2018-05-04T21:27:02.482Z,3.50
2018-05-04T21:29:33.813Z,4.03
2018-05-04T21:32:06.065Z,3.97
2018-05-04T21:34:37.661Z,4.13
2018-05-04T21:37:09.075Z,3.80
2018-05-04T21:39:40.419Z,4.30
2018-05-04T21:42:11.894Z,3.73
2018-05-04T21:44:44.053Z,3.60
2018-05-04T21:47:15.722Z,3.60
2018-05-04T21:49:47.090Z,3.53
2018-05-04T21:52:18.303Z,3.73
2018-05-04T21:54:50.509Z,3.63
2018-05-04T21:57:22.695Z,3.70
2018-05-04T21:59:54.055Z,3.93
2018-05-04T22:02:25.447Z,3.63
2018-05-04T22:04:56.800Z,3.53
2018-05-04T22:07:28.169Z,3.93
2018-05-04T22:09:59.510Z,4.10
2018-05-04T22:12:30.878Z,3.80
2018-05-04T22:15:02.028Z,4.00
2018-05-04T22:17:33.232Z,3.87
2018-05-04T22:20:04.570Z,4.10
2018-05-04T22:22:35.967Z,4.50
2018-05-04T22:25:07.351Z,4.30
2018-05-04T22:27:39.030Z,4.13
2018-05-04T22:30:11.142Z,3.83
2018-05-04T22:32:42.479Z,14.67
2018-05-04T22:35:13.978Z,5.23
2018-05-04T22:37:45.472Z,4.47
2018-05-04T22:40:16.854Z,3.77
2018-05-04T22:42:47.985Z,4.03
2018-05-04T22:45:19.134Z,3.83
2018-05-04T22:47:50.537Z,4.40
2018-05-04T22:50:21.660Z,3.90
2018-05-04T22:52:53.935Z,3.87
2018-05-04T22:55:26.022Z,3.97
2018-05-04T22:57:57.499Z,3.97
2018-05-04T23:00:29.134Z,3.83
2018-05-04T23:03:00.480Z,4.07
2018-05-04T23:05:31.884Z,4.10
2018-05-04T23:08:03.437Z,3.83
2018-05-04T23:10:34.576Z,4.33
2018-05-04T23:13:05.928Z,4.00
2018-05-04T23:15:37.295Z,4.00
2018-05-04T23:18:08.819Z,5.03
2018-05-04T23:20:40.166Z,4.53
2018-05-04T23:23:11.528Z,4.33
2018-05-04T23:25:43.035Z,4.43
2018-05-04T23:28:14.358Z,5.23
2018-05-04T23:30:45.733Z,3.60
2018-05-04T23:33:17.127Z,4.00
2018-05-04T23:35:48.457Z,4.23
2018-05-04T23:38:19.821Z,4.17
2018-05-04T23:40:51.231Z,4.77
2018-05-04T23:43:22.574Z,4.77
2018-05-04T23:45:53.910Z,4.20
2018-05-04T23:48:25.557Z,4.23
2018-05-04T23:50:56.890Z,4.80
2018-05-04T23:53:28.497Z,4.13
2018-05-04T23:56:00.949Z,4.10
2018-05-04T23:58:32.095Z,4.33
